avis per tempestes more information blitzortung!


avis per Pluja more information rain snow radar


Visita la nostra xarxa de llocs de meteo:

Template documentation
and downloads

And another site



Thunderstorms From: 18-09-2018 20:00 Until: 19-09-2018 10:59 warning for: Thunderstorms Level: Yellow info button
Rain From: 18-09-2018 20:00 Until: 19-09-2018 10:59 warning for: Rain Level: Yellow info button

Pagina Historial Weather Underground text

Diari Resum Juliol 6, 2017 Unitats:  Imperial    Mètric   Tant
« Previous Dia
SegĂźent Dia »
Diari Setmana Mensual Anual Personalitzada
  Maxima: Minima: Media:
Temperatura: TemperatureC °F 18.6 °F 26.9 °F
Punt de rosada: DewpointC °F 11.9 °F 15.4 °F
Humitat: Humidity % 27 % 51 %
Wind Speed: WindSpeedKMH mph 0.0 mph 6.9 mph
RĂ fegues de vent: WindSpeedGustKMH mph - -
Vent:- - ESE
Pression baro: PressurehPa in 1014.8 in -
Precipitacions: 0.0 in    
Historical Graphs
 
 
Dades de taula per Juliol 6, 2017
Temps Temperatura Punt de rosada Pression baro Vent Wind Speed RĂ fegues de vent Humitat Rainfall Rate (Hourly)
TemperatureC °F DewpointC °F PressurehPa in Calm     Humidity % HourlyPrecipMM in
00:01 21.4 °F 16.6 °F 1015.8 in SW 3.2 mph 3.2 mph 74 % 0.0 in
00:05 19.1 °F 14.6 °F 1014.8 in NE 3.2 mph 6.4 mph 75 % 0.0 in
00:06 21.2 °F 16.4 °F 1015.8 in Calm     74 % 0.0 in
00:11 21.2 °F 16.6 °F 1015.8 in NE 3.2 mph   75 % 0.0 in
00:15 19.2 °F 14.4 °F 1014.8 in Calm   3.2 mph 74 % 0.0 in
00:25 18.7 °F 14.4 °F 1014.8 in SSW 1.6 mph 6.4 mph 76 % 0.0 in
00:35 18.6 °F 14.3 °F 1015.8 in SW 4.8 mph 4.8 mph 76 % 0.0 in
00:45 18.6 °F 14.5 °F 1015.8 in Calm   4.8 mph 77 % 0.0 in
00:55 18.8 °F 14.7 °F 1015.8 in NW 3.2 mph 4.8 mph 77 % 0.0 in
01:05 18.9 °F 14.6 °F 1014.8 in Calm   3.2 mph 76 % 0.0 in
01:15 18.9 °F 14.8 °F 1014.8 in North 1.6 mph 4.8 mph 77 % 0.0 in
01:25 18.7 °F 14.6 °F 1014.8 in WNW 1.6 mph 3.2 mph 77 % 0.0 in
01:35 18.8 °F 14.7 °F 1014.8 in SSW 3.2 mph 3.2 mph 77 % 0.0 in
01:45 19.0 °F 13.8 °F 1014.8 in NE 4.8 mph 6.4 mph 72 % 0.0 in
01:55 18.9 °F 14.4 °F 1014.8 in NNE 4.8 mph 6.4 mph 75 % 0.0 in
02:05 18.9 °F 14.4 °F 1014.8 in West 1.6 mph 3.2 mph 75 % 0.0 in
02:15 18.8 °F 14.3 °F 1015.8 in SW 3.2 mph 6.4 mph 75 % 0.0 in
02:25 19.1 °F 14.6 °F 1015.8 in SW 3.2 mph 4.8 mph 75 % 0.0 in
02:35 19.3 °F 14.8 °F 1015.8 in Calm   3.2 mph 75 % 0.0 in
02:45 19.5 °F 14.7 °F 1015.8 in NNE 1.6 mph 3.2 mph 74 % 0.0 in
02:55 19.6 °F 14.6 °F 1015.8 in WSW 1.6 mph 1.6 mph 73 % 0.0 in
03:05 19.8 °F 15.1 °F 1015.8 in SW 1.6 mph 3.2 mph 74 % 0.0 in
03:15 20.1 °F 14.7 °F 1015.8 in WSW 1.6 mph 1.6 mph 71 % 0.0 in
03:25 20.5 °F 15.1 °F 1015.8 in West 3.2 mph 3.2 mph 71 % 0.0 in
03:35 20.9 °F 15.2 °F 1016.8 in SW 1.6 mph 3.2 mph 70 % 0.0 in
03:45 21.6 °F 15.7 °F 1016.8 in SW 1.6 mph 3.2 mph 69 % 0.0 in
03:55 22.3 °F 15.7 °F 1016.8 in SW 3.2 mph 3.2 mph 66 % 0.0 in
04:05 23.0 °F 15.8 °F 1016.8 in Calm   4.8 mph 64 % 0.0 in
04:15 23.5 °F 16.1 °F 1017.8 in Calm   3.2 mph 63 % 0.0 in
04:25 24.4 °F 16.4 °F 1017.8 in SW 1.6 mph 4.8 mph 61 % 0.0 in
04:35 24.6 °F 16.3 °F 1017.8 in SW 1.6 mph 6.4 mph 60 % 0.0 in
04:45 25.4 °F 16.3 °F 1017.8 in SW 1.6 mph 3.2 mph 57 % 0.0 in
04:55 26.4 °F 16.3 °F 1017.8 in South 3.2 mph 6.4 mph 54 % 0.0 in
05:05 26.3 °F 15.9 °F 1017.8 in SE 3.2 mph 6.4 mph 53 % 0.0 in
05:15 26.6 °F 16.2 °F 1017.8 in SSE 1.6 mph 3.2 mph 53 % 0.0 in
05:25 27.5 °F 16.2 °F 1017.8 in Calm   3.2 mph 50 % 0.0 in
05:35 27.5 °F 15.2 °F 1017.8 in SSE 3.2 mph 6.4 mph 47 % 0.0 in
05:40 27.6 °F 15.3 °F 1017.8 in SSE 1.6 mph 4.8 mph 47 % 0.0 in
10:40 27.9 °F 15.9 °F 1017.8 in SE 3.7 mph   48 % 0.0 in
10:45 28.5 °F 16.1 °F 1016.8 in East 5.6 mph 5.6 mph 47 % 0.0 in
10:50 28.3 °F 15.9 °F 1016.8 in East 5.6 mph 5.6 mph 47 % 0.0 in
10:56 28.4 °F 16.3 °F 1017.8 in WNW 3.7 mph 3.7 mph 48 % 0.0 in
11:02 28.6 °F 15.8 °F 1017.8 in NE 3.7 mph 3.9 mph 46 % 0.0 in
11:05 29.0 °F 15.9 °F 1017.8 in NNE 5.6 mph 5.6 mph 45 % 0.0 in
11:10 29.1 °F 15.9 °F 1017.8 in NNW 3.7 mph 4.2 mph 45 % 0.0 in
11:13 29.2 °F 16.1 °F 1017.8 in North 5.6 mph 5.6 mph 45 % 0.0 in
11:15 29.3 °F 16.1 °F 1017.8 in NE 5.6 mph 5.6 mph 45 % 0.0 in
11:19 28.7 °F 15.9 °F 1017.8 in WSW 5.6 mph 5.6 mph 46 % 0.0 in
11:20 28.7 °F 15.6 °F 1017.8 in SW 4.2 mph 4.2 mph 45 % 0.0 in
11:23 29.3 °F 15.8 °F 1017.8 in NNE 1.9 mph 1.9 mph 44 % 0.0 in
11:25 29.5 °F 15.9 °F 1017.8 in ESE 5.8 mph 5.8 mph 44 % 0.0 in
11:28 29.4 °F 15.2 °F 1017.8 in NNE 5.6 mph 5.6 mph 42 % 0.0 in
11:30 29.2 °F 14.9 °F 1017.8 in NNW 5.6 mph 5.6 mph 42 % 0.0 in
11:31 29.2 °F 14.9 °F 1017.8 in West 5.6 mph 5.6 mph 42 % 0.0 in
11:36 29.7 °F 15.4 °F 1017.8 in NNE 7.4 mph 7.4 mph 42 % 0.0 in
11:41 29.6 °F 15.3 °F 1016.8 in East 9.3 mph 9.3 mph 42 % 0.0 in
11:46 30.0 °F 14.9 °F 1016.8 in SE 7.4 mph 7.4 mph 40 % 0.0 in
11:51 29.9 °F 14.8 °F 1016.8 in NNE 9.3 mph 9.3 mph 40 % 0.0 in
11:56 30.0 °F 14.9 °F 1016.8 in NNE 14.8 mph 14.8 mph 40 % 0.0 in
12:01 30.3 °F 14.8 °F 1016.8 in NE 9.3 mph 9.3 mph 39 % 0.0 in
12:06 30.4 °F 14.5 °F 1016.8 in ESE 9.3 mph 9.3 mph 38 % 0.0 in
12:11 30.6 °F 14.7 °F 1015.8 in ENE 9.3 mph 9.3 mph 38 % 0.0 in
12:16 30.7 °F 14.3 °F 1015.8 in NE 9.3 mph 9.3 mph 37 % 0.0 in
12:21 31.2 °F 14.8 °F 1015.8 in West 3.7 mph 3.7 mph 37 % 0.0 in
12:26 31.6 °F 13.8 °F 1015.8 in East 9.7 mph 9.7 mph 34 % 0.0 in
12:31 31.3 °F 14.0 °F 1015.8 in NE 7.4 mph 7.4 mph 35 % 0.0 in
12:36 31.8 °F 14.4 °F 1015.8 in ESE 5.8 mph 7.2 mph 35 % 0.0 in
12:41 32.1 °F 13.8 °F 1015.8 in SE 3.7 mph 3.7 mph 33 % 0.0 in
12:46 32.1 °F 13.3 °F 1015.8 in ENE 10.3 mph 10.3 mph 32 % 0.0 in
12:51 32.8 °F 14.9 °F 1015.8 in SW 7.4 mph 7.4 mph 34 % 0.0 in
12:56 33.7 °F 14.2 °F 1015.8 in ESE 6.4 mph 6.4 mph 31 % 0.0 in
13:01 32.5 °F 13.2 °F 1015.8 in East 14.8 mph 14.8 mph 31 % 0.0 in
13:06 33.3 °F 13.4 °F 1015.8 in East 11.9 mph 11.9 mph 30 % 0.0 in
13:11 32.8 °F 12.9 °F 1015.8 in ESE 5.6 mph 5.6 mph 30 % 0.0 in
13:16 33.3 °F 12.8 °F 1015.8 in SSE 9.3 mph 9.3 mph 29 % 0.0 in
13:21 33.1 °F 13.2 °F 1015.8 in ESE 9.5 mph 9.5 mph 30 % 0.0 in
13:26 33.5 °F 13.6 °F 1015.8 in North 7.4 mph 7.4 mph 30 % 0.0 in
13:31 33.6 °F 12.6 °F 1015.8 in NE 9.3 mph 9.3 mph 28 % 0.0 in
13:36 33.7 °F 13.2 °F 1015.8 in ESE 9.3 mph 9.3 mph 29 % 0.0 in
13:41 33.8 °F 12.7 °F 1015.8 in East 14.0 mph 14.0 mph 28 % 0.0 in
13:46 33.7 °F 12.7 °F 1015.8 in NE 9.3 mph 9.3 mph 28 % 0.0 in
13:51 33.5 °F 11.9 °F 1015.8 in ENE 13.0 mph 13.0 mph 27 % 0.0 in
13:56 34.2 °F 13.1 °F 1014.8 in SSE 9.3 mph 9.3 mph 28 % 0.0 in
14:01 34.3 °F 13.2 °F 1014.8 in SE 9.3 mph 9.3 mph 28 % 0.0 in
14:06 33.8 °F 13.8 °F 1014.8 in ESE 16.4 mph 16.4 mph 30 % 0.0 in
14:11 33.3 °F 14.4 °F 1015.8 in ESE 16.7 mph 16.7 mph 32 % 0.0 in
14:16 33.6 °F 14.6 °F 1015.8 in SE 13.0 mph 13.0 mph 32 % 0.0 in
14:21 33.8 °F 14.8 °F 1015.8 in ENE 18.5 mph 18.5 mph 32 % 0.0 in
14:26 32.9 °F 14.5 °F 1015.8 in NE 16.7 mph 16.7 mph 33 % 0.0 in
14:31 32.7 °F 14.3 °F 1015.8 in ESE 13.0 mph 13.0 mph 33 % 0.0 in
14:36 32.3 °F 14.0 °F 1015.8 in South 11.1 mph 11.1 mph 33 % 0.0 in
14:41 32.0 °F 13.7 °F 1015.8 in ESE 20.4 mph 20.4 mph 33 % 0.0 in
14:46 31.9 °F 14.1 °F 1015.8 in SE 13.0 mph 13.0 mph 34 % 0.0 in
14:51 31.6 °F 13.8 °F 1015.8 in SE 20.4 mph 20.4 mph 34 % 0.0 in
14:56 31.5 °F 13.7 °F 1015.8 in East 14.8 mph 14.8 mph 34 % 0.0 in
15:01 31.5 °F 14.2 °F 1015.8 in East 20.4 mph 20.4 mph 35 % 0.0 in
15:06 31.9 °F 14.6 °F 1015.8 in East 12.2 mph 12.2 mph 35 % 0.0 in
15:11 31.7 °F 14.3 °F 1015.8 in ESE 16.7 mph 16.7 mph 35 % 0.0 in
15:16 31.8 °F 14.4 °F 1015.8 in ESE 13.0 mph 13.0 mph 35 % 0.0 in
15:21 31.7 °F 14.3 °F 1015.8 in ESE 11.9 mph 11.9 mph 35 % 0.0 in
15:26 31.5 °F 14.6 °F 1015.8 in East 14.8 mph 14.8 mph 36 % 0.0 in
15:31 31.5 °F 14.6 °F 1015.8 in NE 14.8 mph 14.8 mph 36 % 0.0 in
15:36 31.0 °F 14.6 °F 1015.8 in ESE 15.1 mph 15.1 mph 37 % 0.0 in
15:41 30.6 °F 15.1 °F 1015.8 in ENE 15.8 mph 15.8 mph 39 % 0.0 in
15:46 30.4 °F 15.3 °F 1015.8 in ESE 16.1 mph 16.1 mph 40 % 0.0 in
15:51 30.1 °F 15.4 °F 1015.8 in East 16.7 mph 16.7 mph 41 % 0.0 in
15:56 30.1 °F 15.4 °F 1015.8 in ESE 18.5 mph 18.5 mph 41 % 0.0 in
16:01 29.9 °F 15.6 °F 1015.8 in East 13.0 mph 13.0 mph 42 % 0.0 in
16:06 29.5 °F 15.6 °F 1015.8 in SE 18.5 mph 18.5 mph 43 % 0.0 in
16:11 29.6 °F 15.7 °F 1015.8 in ESE 16.7 mph 16.7 mph 43 % 0.0 in
16:16 29.3 °F 15.4 °F 1015.8 in East 14.8 mph 14.8 mph 43 % 0.0 in
16:21 29.4 °F 15.9 °F 1015.8 in ESE 16.7 mph 16.7 mph 44 % 0.0 in
16:26 29.6 °F 16.1 °F 1015.8 in East 13.0 mph 13.0 mph 44 % 0.0 in
16:31 29.5 °F 15.6 °F 1015.8 in ENE 13.0 mph 13.0 mph 43 % 0.0 in
16:36 29.5 °F 15.6 °F 1015.8 in SE 14.8 mph 14.8 mph 43 % 0.0 in
16:41 29.5 °F 15.6 °F 1015.8 in SE 11.1 mph 11.1 mph 43 % 0.0 in
16:46 29.6 °F 15.3 °F 1015.8 in ESE 13.0 mph 13.0 mph 42 % 0.0 in
16:51 29.5 °F 15.2 °F 1015.8 in ESE 11.1 mph 11.1 mph 42 % 0.0 in
16:56 29.5 °F 14.5 °F 1015.8 in ESE 14.8 mph 14.8 mph 40 % 0.0 in
17:01 29.4 °F 14.4 °F 1015.8 in ESE 11.1 mph 11.1 mph 40 % 0.0 in
17:06 29.5 °F 14.5 °F 1015.8 in East 8.7 mph 8.7 mph 40 % 0.0 in
17:11 29.3 °F 14.3 °F 1014.8 in ENE 9.7 mph 9.7 mph 40 % 0.0 in
17:16 29.3 °F 14.3 °F 1014.8 in East 9.5 mph 9.5 mph 40 % 0.0 in
17:21 29.3 °F 13.9 °F 1014.8 in ESE 11.1 mph 11.1 mph 39 % 0.0 in
17:26 29.2 °F 14.2 °F 1015.8 in ENE 11.1 mph 11.1 mph 40 % 0.0 in
17:31 29.2 °F 14.2 °F 1015.8 in ENE 7.4 mph 7.4 mph 40 % 0.0 in
17:36 29.1 °F 13.7 °F 1015.8 in ENE 14.8 mph 14.8 mph 39 % 0.0 in
17:41 28.9 °F 14.3 °F 1014.8 in NE 9.3 mph 9.3 mph 41 % 0.0 in
17:46 28.9 °F 14.7 °F 1014.8 in ESE 7.4 mph 7.4 mph 42 % 0.0 in
17:51 28.9 °F 15.1 °F 1014.8 in ESE 11.1 mph 11.1 mph 43 % 0.0 in
17:56 28.8 °F 15.3 °F 1015.8 in ESE 7.4 mph 7.4 mph 44 % 0.0 in
18:01 28.9 °F 15.4 °F 1015.8 in NNE 9.3 mph 9.3 mph 44 % 0.0 in
18:06 28.6 °F 15.5 °F 1015.8 in East 13.0 mph 13.0 mph 45 % 0.0 in
18:11 28.6 °F 15.5 °F 1015.8 in SSE 11.9 mph 11.9 mph 45 % 0.0 in
18:16 28.9 °F 15.4 °F 1015.8 in South 9.3 mph 9.3 mph 44 % 0.0 in
18:21 29.1 °F 15.2 °F 1015.8 in South 5.6 mph 5.6 mph 43 % 0.0 in
18:26 29.1 °F 15.2 °F 1015.8 in SW 7.4 mph 7.4 mph 43 % 0.0 in
18:31 28.9 °F 15.4 °F 1015.8 in WSW 13.0 mph 13.0 mph 44 % 0.0 in
18:36 28.7 °F 15.6 °F 1015.8 in South 13.0 mph 13.0 mph 45 % 0.0 in
18:41 28.4 °F 15.3 °F 1015.8 in SW 14.8 mph 14.8 mph 45 % 0.0 in
18:46 28.3 °F 15.6 °F 1015.8 in SW 11.1 mph 11.1 mph 46 % 0.0 in
18:51 28.3 °F 15.2 °F 1015.8 in WSW 7.4 mph 7.4 mph 45 % 0.0 in
18:56 28.2 °F 15.2 °F 1015.8 in SW 10.3 mph 10.3 mph 45 % 0.0 in
19:01 28.1 °F 14.7 °F 1015.8 in SSW 14.8 mph 14.8 mph 44 % 0.0 in
19:06 28.2 °F 14.8 °F 1015.8 in SW 11.1 mph 11.1 mph 44 % 0.0 in
19:11 28.3 °F 14.5 °F 1016.8 in WSW 7.4 mph 7.4 mph 43 % 0.0 in
19:15 24.2 °F 17.7 °F 1016.8 in NNE 4.8 mph 6.4 mph 67 % 0.0 in
19:16 28.6 °F 14.4 °F 1016.8 in SW 5.6 mph 5.6 mph 42 % 0.0 in
19:21 28.7 °F 14.2 °F 1016.8 in South 9.3 mph 9.3 mph 41 % 0.0 in
19:25 24.0 °F 17.5 °F 1016.8 in NNE 1.6 mph 4.8 mph 67 % 0.0 in
19:26 28.8 °F 14.2 °F 1015.8 in SW 9.3 mph 9.3 mph 41 % 0.0 in
19:31 28.6 °F 13.7 °F 1015.8 in SSW 9.3 mph 9.3 mph 40 % 0.0 in
19:35 23.9 °F 17.9 °F 1016.8 in NE 1.6 mph 3.2 mph 69 % 0.0 in
19:36 28.5 °F 13.6 °F 1015.8 in SSW 7.4 mph 7.4 mph 40 % 0.0 in
19:41 28.5 °F 13.9 °F 1014.8 in SW 4.7 mph 4.7 mph 41 % 0.0 in
19:45 23.8 °F 18.0 °F 1015.8 in East 1.6 mph 3.2 mph 70 % 0.0 in
19:46 28.3 °F 13.8 °F 1014.8 in SW 5.6 mph 5.6 mph 41 % 0.0 in
19:51 28.3 °F 13.8 °F 1014.8 in SSW 3.7 mph 3.7 mph 41 % 0.0 in
19:55 23.6 °F 17.8 °F 1015.8 in Calm   1.6 mph 70 % 0.0 in
19:56 28.2 °F 13.7 °F 1015.8 in South 2.3 mph 2.3 mph 41 % 0.0 in
20:01 28.1 °F 13.6 °F 1015.8 in Calm     41 % 0.0 in
20:05 23.4 °F 17.6 °F 1016.8 in Calm   1.6 mph 70 % 0.0 in
20:06 28.1 °F 13.6 °F 1015.8 in ENE 3.7 mph 3.7 mph 41 % 0.0 in
20:11 28.0 °F 13.5 °F 1015.8 in ENE 3.7 mph 3.7 mph 41 % 0.0 in
20:15 23.3 °F 17.5 °F 1016.8 in NW 3.2 mph 4.8 mph 70 % 0.0 in
20:16 27.9 °F 13.4 °F 1015.8 in ENE 7.6 mph 7.6 mph 41 % 0.0 in
20:21 27.8 °F 14.1 °F 1015.8 in ESE 8.7 mph 8.7 mph 43 % 0.0 in
20:25 23.2 °F 17.7 °F 1016.8 in NNE 4.8 mph 4.8 mph 71 % 0.0 in
20:26 27.6 °F 14.9 °F 1014.8 in ENE 7.9 mph 7.9 mph 46 % 0.0 in
20:31 27.3 °F 15.7 °F 1014.8 in ESE 9.3 mph 9.3 mph 49 % 0.0 in
20:35 23.0 °F 17.4 °F 1015.8 in NNE 3.2 mph 6.4 mph 71 % 0.0 in
20:36 27.1 °F 16.1 °F 1014.8 in ENE 7.4 mph 7.4 mph 51 % 0.0 in
20:41 27.1 °F 16.1 °F 1015.8 in North 7.6 mph 7.6 mph 51 % 0.0 in
20:42 27.1 °F 16.1 °F 1015.8 in ENE 7.4 mph 7.4 mph 51 % 0.0 in
20:45 22.9 °F 17.3 °F 1015.8 in NNE 1.6 mph 3.2 mph 71 % 0.0 in
20:47 27.1 °F 16.4 °F 1015.8 in SE 6.9 mph 6.9 mph 52 % 0.0 in
20:52 26.9 °F 17.1 °F 1015.8 in East 9.3 mph 9.3 mph 55 % 0.0 in
20:55 22.7 °F 17.4 °F 1015.8 in Calm   3.2 mph 72 % 0.0 in
20:57 26.8 °F 16.7 °F 1015.8 in ESE 3.7 mph 3.7 mph 54 % 0.0 in
21:02 26.6 °F 17.1 °F 1015.8 in East 5.6 mph 5.6 mph 56 % 0.0 in
21:07 26.5 °F 16.7 °F 1015.8 in East 5.0 mph 5.0 mph 55 % 0.0 in
21:12 26.5 °F 17.3 °F 1015.8 in ESE 5.6 mph 5.6 mph 57 % 0.0 in
21:15 22.5 °F 17.2 °F 1015.8 in Calm   1.6 mph 72 % 0.0 in
21:17 26.4 °F 17.2 °F 1015.8 in ESE 5.6 mph 5.6 mph 57 % 0.0 in
21:22 26.3 °F 16.8 °F 1015.8 in ENE 4.2 mph 4.2 mph 56 % 0.0 in
21:25 22.3 °F 17.0 °F 1015.8 in Calm     72 % 0.0 in
21:27 26.2 °F 17.0 °F 1015.8 in NNE 3.7 mph 3.7 mph 57 % 0.0 in
21:32 26.2 °F 17.0 °F 1015.8 in ENE 1.9 mph 1.9 mph 57 % 0.0 in
21:37 26.1 °F 16.9 °F 1015.8 in ENE 3.7 mph   57 % 0.0 in
21:38 26.1 °F 16.9 °F 1015.8 in East 3.7 mph 3.7 mph 57 % 0.0 in
21:43 26.1 °F 16.9 °F 1014.8 in NNE 5.6 mph 5.6 mph 57 % 0.0 in
21:45 22.2 °F 17.1 °F 1014.8 in Calm   3.2 mph 73 % 0.0 in
21:48 26.0 °F 16.8 °F 1014.8 in ESE 5.6 mph 5.6 mph 57 % 0.0 in
21:53 26.0 °F 17.1 °F 1014.8 in ENE 3.9 mph 3.9 mph 58 % 0.0 in
21:55 22.2 °F 17.1 °F 1014.8 in NNE 1.6 mph 3.2 mph 73 % 0.0 in
21:58 25.9 °F 17.0 °F 1015.8 in SSE 3.7 mph 3.7 mph 58 % 0.0 in
22:03 25.8 °F 17.2 °F 1015.8 in ESE 5.6 mph 5.6 mph 59 % 0.0 in
22:05 22.1 °F 17.1 °F 1015.8 in NNW 3.2 mph 3.2 mph 73 % 0.0 in
22:08 25.7 °F 17.6 °F 1015.8 in ESE 8.7 mph 8.7 mph 61 % 0.0 in
22:13 25.6 °F 17.3 °F 1015.8 in East 5.3 mph 5.3 mph 60 % 0.0 in
22:15 21.9 °F 17.1 °F 1015.8 in West 1.6 mph 3.2 mph 74 % 0.0 in
22:18 25.4 °F 17.1 °F 1015.8 in ENE 5.8 mph 5.8 mph 60 % 0.0 in
22:23 25.4 °F 17.6 °F 1015.8 in ESE 5.6 mph 5.6 mph 62 % 0.0 in
22:25 21.9 °F 17.3 °F 1015.8 in Calm   1.6 mph 75 % 0.0 in
22:28 25.3 °F 17.5 °F 1015.8 in ENE 5.6 mph 5.6 mph 62 % 0.0 in
22:33 25.2 °F 17.4 °F 1015.8 in East 3.7 mph 3.7 mph 62 % 0.0 in
22:35 22.0 °F 17.2 °F 1015.8 in NW 3.2 mph 3.2 mph 74 % 0.0 in
22:38 25.1 °F 17.3 °F 1015.8 in ENE 3.7 mph 3.7 mph 62 % 0.0 in
22:43 25.0 °F 17.4 °F 1015.8 in ESE 5.6 mph 5.6 mph 63 % 0.0 in
22:45 21.8 °F 17.2 °F 1015.8 in Calm   3.2 mph 75 % 0.0 in
22:48 25.1 °F 17.6 °F 1015.8 in NNE 3.7 mph 3.9 mph 63 % 0.0 in
22:53 25.1 °F 17.3 °F 1015.8 in NNE 5.6 mph 5.6 mph 62 % 0.0 in
22:55 21.6 °F 17.0 °F 1015.8 in SE 1.6 mph 3.2 mph 75 % 0.0 in
22:58 25.1 °F 17.6 °F 1015.8 in NNE 5.6 mph 5.6 mph 63 % 0.0 in
22:59 25.1 °F 17.3 °F 1015.8 in NNE 5.6 mph 5.6 mph 62 % 0.0 in
23:04 25.1 °F 17.6 °F 1015.8 in NE 3.7 mph 3.7 mph 63 % 0.0 in
23:05 21.6 °F 17.0 °F 1015.8 in Calm   1.6 mph 75 % 0.0 in
23:09 25.0 °F 17.4 °F 1015.8 in NNW 1.9 mph 1.9 mph 63 % 0.0 in
23:14 25.0 °F 17.4 °F 1015.8 in Calm     63 % 0.0 in
23:15 21.6 °F 17.0 °F 1015.8 in Calm   1.6 mph 75 % 0.0 in
23:19 24.9 °F 17.6 °F 1015.8 in NE 5.6 mph 5.6 mph 64 % 0.0 in
23:24 24.8 °F 17.5 °F 1015.8 in NE 7.4 mph 7.4 mph 64 % 0.0 in
23:25 21.7 °F 16.7 °F 1015.8 in NNW 3.2 mph 4.8 mph 73 % 0.0 in
23:29 24.7 °F 17.4 °F 1015.8 in ENE 5.6 mph 5.6 mph 64 % 0.0 in
23:34 24.6 °F 17.3 °F 1015.8 in NE 3.7 mph 3.7 mph 64 % 0.0 in
23:35 21.7 °F 16.4 °F 1015.8 in NNE 1.6 mph 3.2 mph 72 % 0.0 in
23:39 24.5 °F 17.5 °F 1015.8 in NNE 9.3 mph 9.3 mph 65 % 0.0 in
23:44 24.4 °F 17.6 °F 1015.8 in NNE 9.3 mph 9.3 mph 66 % 0.0 in
23:45 21.8 °F 15.8 °F 1015.8 in ENE 3.2 mph 3.2 mph 69 % 0.0 in
23:49 24.4 °F 17.6 °F 1015.8 in NNE 5.6 mph 5.6 mph 66 % 0.0 in
23:54 24.3 °F 17.6 °F 1015.8 in NNE 2.3 mph   66 % 0.0 in
23:55 21.5 °F 15.3 °F 1015.8 in NE 1.6 mph 4.8 mph 68 % 0.0 in
23:59 24.3 °F 17.6 °F 1016.8 in ENE 3.7 mph 3.7 mph 66 % 0.0 in
Meteo Sesrovires
Elogis d' Weather Underground - 1.75 mb

Guio original per  Jim McMurry - jmcmurry@mwt.net Adaptat per a la plantilla per  Wim van der Kuil - Leuven-Template.eu

Trobareu la nostra informacio del temps tambe a:

Weather Underground

AWEKAS